CheckWX is a tool to help pilots better visualize weather data.  It is not intended as a substitute for an official pre-flight weather briefing.

09:49:44 UTC

CYOA METAR
Ekati Airport
Ekati, Canada
Current

9 hours ago

CYOA 200100Z 30005KT 6SM BR SCT003 BKN230 M30/M33 A2977
Observed
Feb-20 @ 01:00 UTC
Wind
  • 300° at 5 KTS
Visibility
9,656 meters
Flight Rules
VFR
Conditions
Mist
Cloud Levels
  • Scattered at 300' AGL
  • Broken at 23,000' AGL
Temperature
-30°C / -22°F
Dewpoint
-33°C / -27°F
Humidity
75%
Altimeter
29.77" Hg
Pressure
1008.12 hPa
Previous

10 hours ago

CYOA 200000Z 33006KT 6SM BR SCT003 BKN230 M29/M33 A2977
Observed
Feb-20 @ 00:00 UTC
Wind
  • 330° at 6 KTS
Visibility
9,656 meters
Flight Rules
VFR
Conditions
Mist
Cloud Levels
  • Scattered at 300' AGL
  • Broken at 23,000' AGL
Temperature
-29°C / -20°F
Dewpoint
-33°C / -27°F
Humidity
68%
Altimeter
29.77" Hg
Pressure
1008.12 hPa
Previous

10 hours ago

CYOA 192345Z 32004KT 6SM BR BKN003 BKN230 M29/M33 A2977
Observed
Feb-19 @ 23:45 UTC
Wind
  • 320° at 4 KTS
Visibility
9,656 meters
Flight Rules
LIFR
Conditions
Mist
Cloud Levels
  • Broken at 300' AGL
  • Broken at 23,000' AGL
Temperature
-29°C / -20°F
Dewpoint
-33°C / -27°F
Humidity
68%
Altimeter
29.77" Hg
Pressure
1008.12 hPa